DAL1875 KLAX-MMSD
Flight info
| Callsign | DAL1875 |
|---|---|
| Flight time | N/A |
| Altitude | 35000 |
| Route | PNDAH2 OTAYY DCT TIJ UT6 IMUSU UT25 LTO DCT ENEKO ENEKO1B |
| Aircraft | B738/M-SDE2E3FGHIRWXY/LB1 |
Departure
| Time | 2026-04-20 12:32 |
|---|---|
| Airport | Los Angeles International Airport (KLAX) |
Arrival
| Time | N/A |
|---|---|
| Airport | Los Cabos International Airport (MMSD) |
| Time | Latitude | Longitude | Altitude | Speed | Heading |
|---|---|---|---|---|---|
| 2026-04-20 12:08 | 33.94654 | -118.40489 | 92 ft | 0 kts | 96° |
| 2026-04-20 12:19 | 33.94655 | -118.40500 | 92 ft | 3 kts | 90° |
| 2026-04-20 12:19 | 33.94653 | -118.40523 | 92 ft | 3 kts | 59° |
| 2026-04-20 12:19 | 33.94641 | -118.40538 | 92 ft | 3 kts | 21° |
| 2026-04-20 12:20 | 33.94621 | -118.40544 | 92 ft | 3 kts | 5° |
| 2026-04-20 12:20 | 33.94614 | -118.40545 | 92 ft | 1 kts | 5° |
| 2026-04-20 12:20 | 33.94630 | -118.40545 | 91 ft | 3 kts | 356° |
| 2026-04-20 12:20 | 33.94643 | -118.40547 | 92 ft | 0 kts | 352° |
| 2026-04-20 12:23 | 33.94646 | -118.40548 | 92 ft | 2 kts | 352° |
| 2026-04-20 12:23 | 33.94655 | -118.40549 | 94 ft | 0 kts | 352° |
| 2026-04-20 12:24 | 33.94678 | -118.40553 | 92 ft | 9 kts | 353° |
| 2026-04-20 12:24 | 33.94760 | -118.40575 | 94 ft | 9 kts | 336° |
| 2026-04-20 12:24 | 33.94773 | -118.40667 | 93 ft | 18 kts | 262° |
| 2026-04-20 12:25 | 33.94753 | -118.40854 | 92 ft | 23 kts | 262° |
| 2026-04-20 12:25 | 33.94733 | -118.41038 | 94 ft | 22 kts | 264° |
| 2026-04-20 12:25 | 33.94707 | -118.41208 | 92 ft | 15 kts | 253° |
| 2026-04-20 12:25 | 33.94644 | -118.41277 | 92 ft | 15 kts | 176° |
| 2026-04-20 12:26 | 33.94497 | -118.41254 | 94 ft | 26 kts | 173° |
| 2026-04-20 12:26 | 33.94317 | -118.41228 | 94 ft | 25 kts | 173° |
| 2026-04-20 12:26 | 33.94147 | -118.41202 | 93 ft | 24 kts | 173° |
| 2026-04-20 12:26 | 33.93990 | -118.41179 | 93 ft | 22 kts | 173° |
| 2026-04-20 12:27 | 33.93840 | -118.41158 | 94 ft | 18 kts | 173° |
| 2026-04-20 12:27 | 33.93767 | -118.41103 | 93 ft | 13 kts | 94° |
| 2026-04-20 12:27 | 33.93779 | -118.40976 | 92 ft | 21 kts | 83° |
| 2026-04-20 12:27 | 33.93798 | -118.40791 | 95 ft | 22 kts | 83° |
| 2026-04-20 12:28 | 33.93817 | -118.40608 | 93 ft | 22 kts | 83° |
| 2026-04-20 12:28 | 33.93836 | -118.40421 | 94 ft | 26 kts | 83° |
| 2026-04-20 12:28 | 33.93861 | -118.40179 | 95 ft | 29 kts | 83° |
| 2026-04-20 12:28 | 33.93885 | -118.39945 | 97 ft | 27 kts | 83° |
| 2026-04-20 12:29 | 33.93908 | -118.39724 | 94 ft | 26 kts | 83° |
| 2026-04-20 12:29 | 33.93928 | -118.39517 | 96 ft | 24 kts | 83° |
| 2026-04-20 12:29 | 33.93948 | -118.39324 | 92 ft | 23 kts | 82° |
| 2026-04-20 12:29 | 33.93968 | -118.39138 | 94 ft | 22 kts | 83° |
| 2026-04-20 12:30 | 33.93987 | -118.38953 | 93 ft | 22 kts | 83° |
| 2026-04-20 12:30 | 33.94008 | -118.38744 | 93 ft | 26 kts | 83° |
| 2026-04-20 12:30 | 33.94029 | -118.38532 | 94 ft | 25 kts | 83° |
| 2026-04-20 12:30 | 33.94044 | -118.38369 | 95 ft | 13 kts | 99° |
| 2026-04-20 12:31 | 33.93969 | -118.38328 | 99 ft | 13 kts | 197° |
| 2026-04-20 12:31 | 33.93942 | -118.38425 | 98 ft | 13 kts | 263° |
| 2026-04-20 12:31 | 33.93912 | -118.38718 | 95 ft | 75 kts | 263° |
| 2026-04-20 12:31 | 33.93814 | -118.39674 | 97 ft | 152 kts | 263° |
| 2026-04-20 12:32 | 33.93675 | -118.41122 | 584 ft | 182 kts | 264° |
| 2026-04-20 12:32 | 33.93590 | -118.42145 | 1253 ft | 189 kts | 264° |
| 2026-04-20 12:32 | 33.93452 | -118.43762 | 2244 ft | 197 kts | 264° |
| 2026-04-20 12:32 | 33.93298 | -118.45503 | 2657 ft | 218 kts | 263° |
| 2026-04-20 12:33 | 33.92840 | -118.47316 | 2965 ft | 237 kts | 232° |
| 2026-04-20 12:33 | 33.91622 | -118.48708 | 3446 ft | 252 kts | 220° |
| 2026-04-20 12:33 | 33.90301 | -118.50191 | 4082 ft | 264 kts | 226° |
| 2026-04-20 12:33 | 33.89083 | -118.51865 | 5022 ft | 266 kts | 229° |
| 2026-04-20 12:34 | 33.87890 | -118.53571 | 5969 ft | 267 kts | 229° |
| 2026-04-20 12:34 | 33.86594 | -118.55171 | 6872 ft | 268 kts | 212° |
| 2026-04-20 12:34 | 33.84852 | -118.55909 | 7737 ft | 268 kts | 186° |
| 2026-04-20 12:34 | 33.82992 | -118.55749 | 8622 ft | 271 kts | 169° |
| 2026-04-20 12:35 | 33.81143 | -118.55245 | 9482 ft | 274 kts | 168° |
| 2026-04-20 12:35 | 33.79282 | -118.54708 | 10289 ft | 278 kts | 168° |
| 2026-04-20 12:35 | 33.77324 | -118.54155 | 10567 ft | 302 kts | 169° |
| 2026-04-20 12:35 | 33.75191 | -118.53570 | 10760 ft | 326 kts | 169° |
| 2026-04-20 12:36 | 33.72930 | -118.52961 | 11218 ft | 338 kts | 168° |
| 2026-04-20 12:36 | 33.70717 | -118.51939 | 11849 ft | 348 kts | 149° |
| 2026-04-20 12:36 | 33.68896 | -118.49999 | 12626 ft | 355 kts | 131° |
| 2026-04-20 12:36 | 33.67597 | -118.47443 | 13368 ft | 362 kts | 121° |
| 2026-04-20 12:37 | 33.66430 | -118.44743 | 14036 ft | 367 kts | 120° |
| 2026-04-20 12:37 | 33.65282 | -118.41983 | 14627 ft | 372 kts | 119° |
| 2026-04-20 12:37 | 33.64120 | -118.39186 | 15240 ft | 376 kts | 120° |
| 2026-04-20 12:37 | 33.62935 | -118.36367 | 15845 ft | 381 kts | 120° |
| 2026-04-20 12:38 | 33.61726 | -118.33524 | 16457 ft | 385 kts | 120° |
| 2026-04-20 12:38 | 33.60495 | -118.30654 | 17046 ft | 389 kts | 120° |
| 2026-04-20 12:38 | 33.59244 | -118.27750 | 17628 ft | 394 kts | 120° |
| 2026-04-20 12:38 | 33.57993 | -118.24854 | 18196 ft | 398 kts | 120° |
| 2026-04-20 12:39 | 33.55418 | -118.18894 | 19176 ft | 407 kts | 120° |
| 2026-04-20 12:39 | 33.54033 | -118.15920 | 19673 ft | 409 kts | 127° |
| 2026-04-20 12:39 | 33.52235 | -118.13277 | 20181 ft | 410 kts | 135° |
| 2026-04-20 12:40 | 33.50287 | -118.10764 | 20701 ft | 413 kts | 136° |
| 2026-04-20 12:40 | 33.48309 | -118.08255 | 21197 ft | 417 kts | 136° |
| 2026-04-20 12:40 | 33.46312 | -118.05714 | 21679 ft | 421 kts | 136° |
| 2026-04-20 12:40 | 33.44303 | -118.03136 | 22120 ft | 425 kts | 135° |
| 2026-04-20 12:41 | 33.42281 | -118.00521 | 22585 ft | 429 kts | 135° |
| 2026-04-20 12:41 | 33.40251 | -117.97881 | 23051 ft | 433 kts | 135° |
| 2026-04-20 12:41 | 33.38207 | -117.95216 | 23474 ft | 437 kts | 135° |
| 2026-04-20 12:41 | 33.36148 | -117.92528 | 23851 ft | 441 kts | 135° |
| 2026-04-20 12:42 | 33.34065 | -117.89812 | 24251 ft | 443 kts | 135° |
| 2026-04-20 12:42 | 33.31979 | -117.87093 | 24666 ft | 445 kts | 135° |
| 2026-04-20 12:42 | 33.29881 | -117.84362 | 25059 ft | 447 kts | 135° |
| 2026-04-20 12:42 | 33.27770 | -117.81616 | 25435 ft | 450 kts | 135° |
| 2026-04-20 12:43 | 33.25641 | -117.78850 | 25807 ft | 453 kts | 135° |
| 2026-04-20 12:43 | 33.23502 | -117.76071 | 26180 ft | 455 kts | 135° |
| 2026-04-20 12:43 | 33.21353 | -117.73281 | 26535 ft | 458 kts | 135° |
| 2026-04-20 12:43 | 33.19188 | -117.70474 | 26875 ft | 461 kts | 135° |
| 2026-04-20 12:44 | 33.17012 | -117.67656 | 27217 ft | 463 kts | 135° |
| 2026-04-20 12:44 | 33.14773 | -117.64880 | 27556 ft | 465 kts | 137° |
| 2026-04-20 12:44 | 33.12433 | -117.62211 | 27892 ft | 467 kts | 139° |
| 2026-04-20 12:44 | 33.10039 | -117.59581 | 28222 ft | 469 kts | 140° |
| 2026-04-20 12:45 | 33.07621 | -117.56954 | 28551 ft | 471 kts | 140° |
| 2026-04-20 12:45 | 33.05195 | -117.54311 | 28856 ft | 474 kts | 140° |
| 2026-04-20 12:45 | 33.02768 | -117.51649 | 29153 ft | 476 kts | 139° |
| 2026-04-20 12:45 | 33.00330 | -117.48960 | 29454 ft | 479 kts | 139° |
| 2026-04-20 12:46 | 32.97885 | -117.46254 | 29744 ft | 481 kts | 139° |
| 2026-04-20 12:46 | 32.95428 | -117.43531 | 30025 ft | 484 kts | 139° |
| 2026-04-20 12:46 | 32.92966 | -117.40801 | 30350 ft | 484 kts | 139° |
| 2026-04-20 12:46 | 32.90509 | -117.38078 | 30763 ft | 482 kts | 139° |
| 2026-04-20 12:47 | 32.88061 | -117.35369 | 31200 ft | 479 kts | 139° |
| 2026-04-20 12:47 | 32.85626 | -117.32678 | 31572 ft | 478 kts | 139° |
| 2026-04-20 12:47 | 32.83189 | -117.29987 | 31897 ft | 478 kts | 139° |
| 2026-04-20 12:47 | 32.80755 | -117.27302 | 32231 ft | 477 kts | 139° |
| 2026-04-20 12:48 | 32.78321 | -117.24620 | 32593 ft | 476 kts | 139° |
| 2026-04-20 12:48 | 32.75899 | -117.21951 | 32964 ft | 475 kts | 139° |
| 2026-04-20 12:48 | 32.73479 | -117.19287 | 33304 ft | 474 kts | 139° |
| 2026-04-20 12:48 | 32.71064 | -117.16629 | 33610 ft | 473 kts | 139° |
| 2026-04-20 12:49 | 32.68650 | -117.13975 | 33897 ft | 474 kts | 139° |
| 2026-04-20 12:49 | 32.66226 | -117.11313 | 34167 ft | 474 kts | 139° |
| 2026-04-20 12:49 | 32.63807 | -117.08658 | 34394 ft | 474 kts | 139° |
| 2026-04-20 12:49 | 32.61384 | -117.05998 | 34625 ft | 475 kts | 139° |
| 2026-04-20 12:50 | 32.58960 | -117.03334 | 34871 ft | 475 kts | 139° |
| 2026-04-20 12:50 | 32.56542 | -117.00671 | 35055 ft | 476 kts | 139° |
| 2026-04-20 12:50 | 32.54106 | -116.97985 | 35068 ft | 479 kts | 139° |
| 2026-04-20 12:51 | 32.49226 | -116.92597 | 35073 ft | 478 kts | 139° |
| 2026-04-20 12:51 | 32.44406 | -116.87267 | 35053 ft | 473 kts | 139° |
| 2026-04-20 12:52 | 32.39635 | -116.81987 | 35066 ft | 473 kts | 139° |
| 2026-04-20 12:52 | 32.34799 | -116.76711 | 35056 ft | 473 kts | 141° |
| 2026-04-20 12:53 | 32.29727 | -116.71729 | 35057 ft | 474 kts | 143° |
| 2026-04-20 12:53 | 32.24609 | -116.66805 | 35054 ft | 475 kts | 143° |
| 2026-04-20 12:54 | 32.19507 | -116.61821 | 35066 ft | 476 kts | 142° |
| 2026-04-20 12:54 | 32.14417 | -116.56808 | 35068 ft | 477 kts | 142° |
| 2026-04-20 12:55 | 32.09315 | -116.51780 | 35065 ft | 478 kts | 142° |
| 2026-04-20 12:55 | 32.04201 | -116.46751 | 35065 ft | 479 kts | 142° |
| 2026-04-20 12:56 | 31.99054 | -116.41702 | 35080 ft | 485 kts | 142° |
| 2026-04-20 12:56 | 31.93823 | -116.36578 | 35076 ft | 491 kts | 142° |
| 2026-04-20 12:57 | 31.88577 | -116.31444 | 35069 ft | 491 kts | 142° |
| 2026-04-20 12:57 | 31.83325 | -116.26311 | 35062 ft | 490 kts | 143° |
| 2026-04-20 12:58 | 31.78075 | -116.21188 | 35071 ft | 491 kts | 142° |
| 2026-04-20 12:58 | 31.72802 | -116.16081 | 35072 ft | 491 kts | 144° |
| 2026-04-20 12:59 | 31.67384 | -116.11223 | 35073 ft | 490 kts | 146° |
| 2026-04-20 12:59 | 31.61914 | -116.06442 | 35066 ft | 490 kts | 146° |
| 2026-04-20 13:00 | 31.56462 | -116.01636 | 35068 ft | 490 kts | 146° |
| 2026-04-20 13:00 | 31.51030 | -115.96815 | 35074 ft | 490 kts | 146° |
| 2026-04-20 13:01 | 31.45592 | -115.91985 | 35067 ft | 490 kts | 146° |
| 2026-04-20 13:01 | 31.40153 | -115.87162 | 35056 ft | 491 kts | 146° |
| 2026-04-20 13:02 | 31.34697 | -115.82334 | 35058 ft | 491 kts | 146° |
| 2026-04-20 13:02 | 31.29243 | -115.77515 | 35060 ft | 492 kts | 146° |
| 2026-04-20 13:03 | 31.23779 | -115.72695 | 35033 ft | 492 kts | 146° |
| 2026-04-20 13:03 | 31.18352 | -115.67914 | 35041 ft | 492 kts | 146° |
| 2026-04-20 13:04 | 31.12888 | -115.63108 | 35040 ft | 492 kts | 146° |
| 2026-04-20 13:04 | 31.07406 | -115.58294 | 35030 ft | 494 kts | 146° |
| 2026-04-20 13:05 | 31.01917 | -115.53479 | 35005 ft | 494 kts | 146° |
| 2026-04-20 13:05 | 30.96429 | -115.48671 | 35007 ft | 494 kts | 147° |
| 2026-04-20 13:06 | 30.90938 | -115.43868 | 35009 ft | 494 kts | 147° |
| 2026-04-20 13:06 | 30.85441 | -115.39066 | 34995 ft | 494 kts | 147° |
| 2026-04-20 13:07 | 30.79905 | -115.34229 | 35000 ft | 494 kts | 146° |
| 2026-04-20 13:07 | 30.74523 | -115.29315 | 35002 ft | 496 kts | 144° |
| 2026-04-20 13:08 | 30.69142 | -115.24299 | 34969 ft | 496 kts | 144° |
| 2026-04-20 13:08 | 30.63760 | -115.19304 | 34976 ft | 495 kts | 145° |
| 2026-04-20 13:09 | 30.58364 | -115.14329 | 34979 ft | 495 kts | 145° |
| 2026-04-20 13:09 | 30.52963 | -115.09367 | 34972 ft | 496 kts | 145° |
| 2026-04-20 13:10 | 30.47550 | -115.04403 | 34984 ft | 496 kts | 145° |
| 2026-04-20 13:10 | 30.42131 | -114.99440 | 34974 ft | 497 kts | 145° |
| 2026-04-20 13:11 | 30.36703 | -114.94474 | 34951 ft | 498 kts | 146° |
| 2026-04-20 13:11 | 30.31272 | -114.89512 | 34984 ft | 497 kts | 146° |
| 2026-04-20 13:12 | 30.25838 | -114.84555 | 34989 ft | 498 kts | 146° |
| 2026-04-20 13:12 | 30.20396 | -114.79599 | 34999 ft | 498 kts | 146° |
| 2026-04-20 13:13 | 30.14954 | -114.74648 | 34976 ft | 498 kts | 146° |
| 2026-04-20 13:13 | 30.09509 | -114.69702 | 34985 ft | 498 kts | 146° |
| 2026-04-20 13:14 | 30.04064 | -114.64765 | 35009 ft | 498 kts | 146° |
| 2026-04-20 13:14 | 29.98616 | -114.59831 | 35013 ft | 498 kts | 146° |
| 2026-04-20 13:15 | 29.93158 | -114.54897 | 34988 ft | 499 kts | 146° |
| 2026-04-20 13:15 | 29.87694 | -114.49961 | 34988 ft | 499 kts | 146° |
| 2026-04-20 13:16 | 29.82229 | -114.45032 | 34984 ft | 499 kts | 146° |
| 2026-04-20 13:16 | 29.76759 | -114.40107 | 35001 ft | 499 kts | 146° |
| 2026-04-20 13:17 | 29.71283 | -114.35184 | 34986 ft | 500 kts | 147° |
| 2026-04-20 13:17 | 29.65802 | -114.30262 | 34995 ft | 500 kts | 147° |
| 2026-04-20 13:18 | 29.61242 | -114.26173 | 35011 ft | 501 kts | 147° |
| 2026-04-20 13:18 | 29.55744 | -114.21250 | 34993 ft | 502 kts | 147° |
| 2026-04-20 13:19 | 29.49339 | -114.15522 | 34982 ft | 502 kts | 147° |
| 2026-04-20 13:19 | 29.43822 | -114.10596 | 35001 ft | 503 kts | 147° |
| 2026-04-20 13:20 | 29.39189 | -114.06464 | 35011 ft | 504 kts | 147° |
| 2026-04-20 13:20 | 29.33655 | -114.01535 | 35017 ft | 504 kts | 147° |
| 2026-04-20 13:21 | 29.28120 | -113.96611 | 35004 ft | 504 kts | 147° |
| 2026-04-20 13:21 | 29.22574 | -113.91686 | 35001 ft | 505 kts | 147° |
| 2026-04-20 13:22 | 29.17019 | -113.86758 | 35016 ft | 505 kts | 147° |
| 2026-04-20 13:22 | 29.11459 | -113.81830 | 35022 ft | 506 kts | 147° |
| 2026-04-20 13:23 | 29.05879 | -113.76896 | 35024 ft | 508 kts | 147° |
| 2026-04-20 13:23 | 29.00322 | -113.71993 | 35004 ft | 508 kts | 148° |
| 2026-04-20 13:24 | 28.94716 | -113.67049 | 35017 ft | 510 kts | 148° |
| 2026-04-20 13:24 | 28.89099 | -113.62099 | 35007 ft | 510 kts | 148° |
| 2026-04-20 13:25 | 28.83479 | -113.57151 | 35002 ft | 510 kts | 148° |
| 2026-04-20 13:25 | 28.77866 | -113.52214 | 35002 ft | 510 kts | 148° |
| 2026-04-20 13:26 | 28.72246 | -113.47274 | 35012 ft | 511 kts | 148° |
| 2026-04-20 13:26 | 28.66599 | -113.42333 | 35000 ft | 513 kts | 148° |
| 2026-04-20 13:27 | 28.60938 | -113.37381 | 35014 ft | 513 kts | 148° |
| 2026-04-20 13:27 | 28.55268 | -113.32425 | 34995 ft | 514 kts | 148° |
| 2026-04-20 13:28 | 28.49594 | -113.27471 | 34995 ft | 514 kts | 148° |
| 2026-04-20 13:28 | 28.43924 | -113.22527 | 34995 ft | 513 kts | 148° |
| 2026-04-20 13:29 | 28.38261 | -113.17597 | 35005 ft | 513 kts | 148° |
| 2026-04-20 13:29 | 28.32599 | -113.12677 | 34986 ft | 513 kts | 148° |
| 2026-04-20 13:30 | 28.26927 | -113.07754 | 35008 ft | 513 kts | 148° |
| 2026-04-20 13:30 | 28.21253 | -113.02836 | 35007 ft | 514 kts | 148° |
| 2026-04-20 13:31 | 28.15572 | -112.97919 | 35013 ft | 514 kts | 148° |
| 2026-04-20 13:31 | 28.09886 | -112.93003 | 34974 ft | 515 kts | 149° |
| 2026-04-20 13:32 | 28.04190 | -112.88085 | 34984 ft | 516 kts | 149° |
| 2026-04-20 13:32 | 27.98482 | -112.83164 | 34994 ft | 516 kts | 149° |
| 2026-04-20 13:33 | 27.92799 | -112.78273 | 35002 ft | 517 kts | 149° |
| 2026-04-20 13:33 | 27.87069 | -112.73345 | 34990 ft | 517 kts | 149° |
| 2026-04-20 13:34 | 27.81341 | -112.68425 | 34983 ft | 517 kts | 149° |
| 2026-04-20 13:34 | 27.75612 | -112.63514 | 34994 ft | 517 kts | 149° |
| 2026-04-20 13:35 | 27.69878 | -112.58604 | 34992 ft | 518 kts | 149° |
| 2026-04-20 13:35 | 27.64140 | -112.53697 | 34992 ft | 518 kts | 149° |
| 2026-04-20 13:36 | 27.58396 | -112.48792 | 34985 ft | 518 kts | 149° |
| 2026-04-20 13:36 | 27.52654 | -112.43893 | 34988 ft | 517 kts | 149° |
| 2026-04-20 13:37 | 27.46916 | -112.39005 | 35001 ft | 517 kts | 149° |
| 2026-04-20 13:37 | 27.41170 | -112.34115 | 34991 ft | 518 kts | 149° |
| 2026-04-20 13:38 | 27.35492 | -112.29134 | 34991 ft | 519 kts | 146° |
| 2026-04-20 13:38 | 27.30031 | -112.23799 | 34994 ft | 520 kts | 144° |
| 2026-04-20 13:39 | 27.24666 | -112.18447 | 34993 ft | 519 kts | 144° |
| 2026-04-20 13:39 | 27.19240 | -112.13110 | 34990 ft | 518 kts | 145° |
| 2026-04-20 13:40 | 27.13788 | -112.07811 | 34967 ft | 518 kts | 145° |
| 2026-04-20 13:40 | 27.08336 | -112.02533 | 34985 ft | 517 kts | 145° |
| 2026-04-20 13:41 | 27.02890 | -111.97267 | 34985 ft | 517 kts | 145° |
| 2026-04-20 13:41 | 26.97440 | -111.92001 | 34982 ft | 517 kts | 145° |
| 2026-04-20 13:42 | 26.91993 | -111.86742 | 34988 ft | 516 kts | 146° |